sensor_id;sensor_type;location;lat;lon;timestamp;P1;durP1;ratioP1;P2;durP2;ratioP2
20559;SDS011;10438;51.454;6.718;2023-04-08T00:00:33;47.70;;;29.43;;
20559;SDS011;10438;51.454;6.718;2023-04-08T00:03:00;44.93;;;29.70;;
20559;SDS011;10438;51.454;6.718;2023-04-08T00:05:26;44.23;;;29.03;;
20559;SDS011;10438;51.454;6.718;2023-04-08T00:07:51;46.57;;;29.23;;
20559;SDS011;10438;51.454;6.718;2023-04-08T00:10:17;44.43;;;28.00;;
20559;SDS011;10438;51.454;6.718;2023-04-08T00:12:43;45.53;;;28.67;;
20559;SDS011;10438;51.454;6.718;2023-04-08T00:15:08;46.43;;;28.67;;
20559;SDS011;10438;51.454;6.718;2023-04-08T00:17:34;46.00;;;29.33;;
20559;SDS011;10438;51.454;6.718;2023-04-08T00:20:00;48.93;;;30.07;;
20559;SDS011;10438;51.454;6.718;2023-04-08T00:22:25;48.83;;;29.47;;
20559;SDS011;10438;51.454;6.718;2023-04-08T00:24:51;46.83;;;28.47;;
20559;SDS011;10438;51.454;6.718;2023-04-08T00:27:16;47.80;;;28.87;;
20559;SDS011;10438;51.454;6.718;2023-04-08T00:29:42;54.87;;;31.20;;
20559;SDS011;10438;51.454;6.718;2023-04-08T00:32:07;51.83;;;29.60;;
20559;SDS011;10438;51.454;6.718;2023-04-08T00:34:33;52.43;;;30.90;;
20559;SDS011;10438;51.454;6.718;2023-04-08T00:36:58;51.80;;;30.00;;
20559;SDS011;10438;51.454;6.718;2023-04-08T00:39:25;50.70;;;30.73;;
20559;SDS011;10438;51.454;6.718;2023-04-08T00:41:50;48.67;;;29.07;;
20559;SDS011;10438;51.454;6.718;2023-04-08T00:44:16;54.50;;;30.07;;
20559;SDS011;10438;51.454;6.718;2023-04-08T00:46:41;52.13;;;31.83;;
20559;SDS011;10438;51.454;6.718;2023-04-08T00:49:07;49.07;;;30.60;;
20559;SDS011;10438;51.454;6.718;2023-04-08T00:51:33;48.67;;;30.00;;
20559;SDS011;10438;51.454;6.718;2023-04-08T00:54:00;51.43;;;29.87;;
20559;SDS011;10438;51.454;6.718;2023-04-08T00:56:28;47.50;;;29.70;;
20559;SDS011;10438;51.454;6.718;2023-04-08T00:58:55;49.73;;;30.23;;
20559;SDS011;10438;51.454;6.718;2023-04-08T01:01:23;46.90;;;28.93;;
20559;SDS011;10438;51.454;6.718;2023-04-08T01:04:27;49.07;;;30.00;;
20559;SDS011;10438;51.454;6.718;2023-04-08T01:09:54;50.33;;;31.43;;
20559;SDS011;10438;51.454;6.718;2023-04-08T01:12:24;51.40;;;30.60;;
20559;SDS011;10438;51.454;6.718;2023-04-08T01:15:06;53.20;;;31.23;;
20559;SDS011;10438;51.454;6.718;2023-04-08T01:17:32;48.80;;;29.67;;
20559;SDS011;10438;51.454;6.718;2023-04-08T01:20:00;52.60;;;31.40;;
20559;SDS011;10438;51.454;6.718;2023-04-08T01:25:08;53.30;;;30.47;;
20559;SDS011;10438;51.454;6.718;2023-04-08T01:27:38;56.83;;;33.10;;
20559;SDS011;10438;51.454;6.718;2023-04-08T01:30:04;58.13;;;33.70;;
20559;SDS011;10438;51.454;6.718;2023-04-08T01:32:31;52.37;;;31.37;;
20559;SDS011;10438;51.454;6.718;2023-04-08T01:34:59;53.63;;;32.03;;
20559;SDS011;10438;51.454;6.718;2023-04-08T01:37:26;57.43;;;32.93;;
20559;SDS011;10438;51.454;6.718;2023-04-08T01:39:53;55.63;;;32.13;;
20559;SDS011;10438;51.454;6.718;2023-04-08T01:42:20;51.77;;;32.33;;
20559;SDS011;10438;51.454;6.718;2023-04-08T01:44:49;52.20;;;31.17;;
20559;SDS011;10438;51.454;6.718;2023-04-08T01:47:16;51.23;;;31.00;;
20559;SDS011;10438;51.454;6.718;2023-04-08T01:49:42;52.63;;;32.97;;
20559;SDS011;10438;51.454;6.718;2023-04-08T01:52:08;58.40;;;32.93;;
20559;SDS011;10438;51.454;6.718;2023-04-08T01:54:34;52.67;;;32.47;;
20559;SDS011;10438;51.454;6.718;2023-04-08T01:57:00;53.73;;;32.23;;
20559;SDS011;10438;51.454;6.718;2023-04-08T01:59:30;55.27;;;32.33;;
20559;SDS011;10438;51.454;6.718;2023-04-08T02:02:00;53.60;;;32.23;;
20559;SDS011;10438;51.454;6.718;2023-04-08T02:04:27;48.13;;;31.47;;
20559;SDS011;10438;51.454;6.718;2023-04-08T02:06:53;54.50;;;31.83;;
20559;SDS011;10438;51.454;6.718;2023-04-08T02:09:20;54.70;;;32.00;;
20559;SDS011;10438;51.454;6.718;2023-04-08T02:11:45;52.90;;;32.00;;
20559;SDS011;10438;51.454;6.718;2023-04-08T02:14:11;55.43;;;33.33;;
20559;SDS011;10438;51.454;6.718;2023-04-08T02:16:52;53.93;;;32.37;;
20559;SDS011;10438;51.454;6.718;2023-04-08T02:19:23;52.23;;;31.83;;
20559;SDS011;10438;51.454;6.718;2023-04-08T02:22:09;59.00;;;33.07;;
20559;SDS011;10438;51.454;6.718;2023-04-08T02:24:40;53.80;;;32.07;;
20559;SDS011;10438;51.454;6.718;2023-04-08T02:27:08;52.10;;;31.70;;
20559;SDS011;10438;51.454;6.718;2023-04-08T02:29:35;54.67;;;32.40;;
20559;SDS011;10438;51.454;6.718;2023-04-08T02:32:01;50.37;;;31.03;;
20559;SDS011;10438;51.454;6.718;2023-04-08T02:34:29;51.80;;;32.03;;
20559;SDS011;10438;51.454;6.718;2023-04-08T02:36:54;56.00;;;32.50;;
20559;SDS011;10438;51.454;6.718;2023-04-08T02:39:20;53.07;;;31.93;;
20559;SDS011;10438;51.454;6.718;2023-04-08T02:41:46;53.27;;;31.47;;
20559;SDS011;10438;51.454;6.718;2023-04-08T02:44:11;53.53;;;30.47;;
20559;SDS011;10438;51.454;6.718;2023-04-08T02:46:37;53.83;;;31.53;;
20559;SDS011;10438;51.454;6.718;2023-04-08T02:49:02;50.60;;;29.67;;
20559;SDS011;10438;51.454;6.718;2023-04-08T02:51:28;50.70;;;30.27;;
20559;SDS011;10438;51.454;6.718;2023-04-08T02:53:53;48.87;;;28.87;;
20559;SDS011;10438;51.454;6.718;2023-04-08T02:56:19;49.90;;;30.30;;
20559;SDS011;10438;51.454;6.718;2023-04-08T02:58:45;55.83;;;31.07;;
20559;SDS011;10438;51.454;6.718;2023-04-08T03:01:11;54.77;;;29.97;;
20559;SDS011;10438;51.454;6.718;2023-04-08T03:03:36;49.47;;;28.83;;
20559;SDS011;10438;51.454;6.718;2023-04-08T03:06:02;49.73;;;28.80;;
20559;SDS011;10438;51.454;6.718;2023-04-08T03:08:27;49.13;;;28.63;;
20559;SDS011;10438;51.454;6.718;2023-04-08T03:10:53;51.30;;;28.40;;
20559;SDS011;10438;51.454;6.718;2023-04-08T03:13:18;45.57;;;27.90;;
20559;SDS011;10438;51.454;6.718;2023-04-08T03:15:44;47.43;;;28.43;;
20559;SDS011;10438;51.454;6.718;2023-04-08T03:18:10;46.37;;;27.87;;
20559;SDS011;10438;51.454;6.718;2023-04-08T03:20:35;49.00;;;28.80;;
20559;SDS011;10438;51.454;6.718;2023-04-08T03:23:01;46.87;;;27.67;;
20559;SDS011;10438;51.454;6.718;2023-04-08T03:25:26;51.23;;;29.20;;
20559;SDS011;10438;51.454;6.718;2023-04-08T03:27:53;44.80;;;27.00;;
20559;SDS011;10438;51.454;6.718;2023-04-08T03:30:19;44.03;;;26.83;;
20559;SDS011;10438;51.454;6.718;2023-04-08T03:32:45;46.97;;;28.10;;
20559;SDS011;10438;51.454;6.718;2023-04-08T03:35:10;46.30;;;26.30;;
20559;SDS011;10438;51.454;6.718;2023-04-08T03:37:36;46.83;;;26.57;;
20559;SDS011;10438;51.454;6.718;2023-04-08T03:40:02;46.53;;;28.47;;
20559;SDS011;10438;51.454;6.718;2023-04-08T03:42:28;43.60;;;27.43;;
20559;SDS011;10438;51.454;6.718;2023-04-08T03:44:53;44.87;;;27.13;;
20559;SDS011;10438;51.454;6.718;2023-04-08T03:47:19;48.57;;;28.57;;
20559;SDS011;10438;51.454;6.718;2023-04-08T03:49:44;47.93;;;29.23;;
20559;SDS011;10438;51.454;6.718;2023-04-08T03:52:10;46.20;;;28.57;;
20559;SDS011;10438;51.454;6.718;2023-04-08T03:54:35;46.20;;;27.30;;
20559;SDS011;10438;51.454;6.718;2023-04-08T03:57:01;46.07;;;29.23;;
20559;SDS011;10438;51.454;6.718;2023-04-08T03:59:26;45.90;;;27.60;;
20559;SDS011;10438;51.454;6.718;2023-04-08T04:01:52;48.80;;;29.70;;
20559;SDS011;10438;51.454;6.718;2023-04-08T04:04:18;45.70;;;27.50;;
20559;SDS011;10438;51.454;6.718;2023-04-08T04:06:43;49.00;;;28.93;;
20559;SDS011;10438;51.454;6.718;2023-04-08T04:09:09;50.63;;;29.07;;
20559;SDS011;10438;51.454;6.718;2023-04-08T04:11:35;51.20;;;29.03;;
20559;SDS011;10438;51.454;6.718;2023-04-08T04:14:00;48.37;;;28.87;;
20559;SDS011;10438;51.454;6.718;2023-04-08T04:16:26;55.43;;;30.70;;
20559;SDS011;10438;51.454;6.718;2023-04-08T04:18:52;62.97;;;31.20;;
20559;SDS011;10438;51.454;6.718;2023-04-08T04:21:17;63.27;;;32.93;;
20559;SDS011;10438;51.454;6.718;2023-04-08T04:23:43;56.43;;;30.47;;
20559;SDS011;10438;51.454;6.718;2023-04-08T04:26:09;78.63;;;34.00;;
20559;SDS011;10438;51.454;6.718;2023-04-08T04:28:35;234.97;;;38.83;;
20559;SDS011;10438;51.454;6.718;2023-04-08T04:31:01;118.07;;;32.30;;
20559;SDS011;10438;51.454;6.718;2023-04-08T04:33:27;482.33;;;52.10;;
20559;SDS011;10438;51.454;6.718;2023-04-08T04:35:52;284.57;;;37.83;;
20559;SDS011;10438;51.454;6.718;2023-04-08T04:38:18;87.63;;;30.03;;
20559;SDS011;10438;51.454;6.718;2023-04-08T04:40:43;72.30;;;29.67;;
20559;SDS011;10438;51.454;6.718;2023-04-08T04:43:09;63.00;;;29.33;;
20559;SDS011;10438;51.454;6.718;2023-04-08T04:45:35;72.47;;;28.57;;
20559;SDS011;10438;51.454;6.718;2023-04-08T04:48:00;89.33;;;30.50;;
20559;SDS011;10438;51.454;6.718;2023-04-08T04:50:27;69.73;;;27.13;;
20559;SDS011;10438;51.454;6.718;2023-04-08T04:52:53;60.33;;;27.60;;
20559;SDS011;10438;51.454;6.718;2023-04-08T04:55:18;70.97;;;27.57;;
20559;SDS011;10438;51.454;6.718;2023-04-08T04:57:46;52.03;;;27.40;;
20559;SDS011;10438;51.454;6.718;2023-04-08T05:00:12;73.13;;;28.70;;
20559;SDS011;10438;51.454;6.718;2023-04-08T05:02:38;73.73;;;28.10;;
20559;SDS011;10438;51.454;6.718;2023-04-08T05:05:03;86.37;;;28.63;;
20559;SDS011;10438;51.454;6.718;2023-04-08T05:07:29;54.67;;;27.27;;
20559;SDS011;10438;51.454;6.718;2023-04-08T05:09:55;43.00;;;26.30;;
20559;SDS011;10438;51.454;6.718;2023-04-08T05:12:20;49.10;;;26.80;;
20559;SDS011;10438;51.454;6.718;2023-04-08T05:14:46;70.43;;;27.03;;
20559;SDS011;10438;51.454;6.718;2023-04-08T05:17:11;64.13;;;26.30;;
20559;SDS011;10438;51.454;6.718;2023-04-08T05:19:37;92.63;;;27.77;;
20559;SDS011;10438;51.454;6.718;2023-04-08T05:22:02;78.53;;;24.90;;
20559;SDS011;10438;51.454;6.718;2023-04-08T05:24:28;44.07;;;26.07;;
20559;SDS011;10438;51.454;6.718;2023-04-08T05:26:53;74.47;;;26.60;;
20559;SDS011;10438;51.454;6.718;2023-04-08T05:29:21;82.27;;;26.20;;
20559;SDS011;10438;51.454;6.718;2023-04-08T05:31:47;157.50;;;32.13;;
20559;SDS011;10438;51.454;6.718;2023-04-08T05:34:13;62.50;;;26.73;;
20559;SDS011;10438;51.454;6.718;2023-04-08T05:36:39;115.47;;;28.93;;
20559;SDS011;10438;51.454;6.718;2023-04-08T05:39:05;76.73;;;29.17;;
20559;SDS011;10438;51.454;6.718;2023-04-08T05:41:30;60.17;;;26.33;;
20559;SDS011;10438;51.454;6.718;2023-04-08T05:43:56;116.77;;;29.30;;
20559;SDS011;10438;51.454;6.718;2023-04-08T05:46:21;67.57;;;29.17;;
20559;SDS011;10438;51.454;6.718;2023-04-08T05:48:47;92.23;;;30.57;;
20559;SDS011;10438;51.454;6.718;2023-04-08T05:51:15;73.57;;;29.37;;
20559;SDS011;10438;51.454;6.718;2023-04-08T05:53:41;79.03;;;28.17;;
20559;SDS011;10438;51.454;6.718;2023-04-08T05:56:09;101.90;;;31.00;;
20559;SDS011;10438;51.454;6.718;2023-04-08T05:58:34;151.83;;;31.33;;
20559;SDS011;10438;51.454;6.718;2023-04-08T06:01:00;130.07;;;32.97;;
20559;SDS011;10438;51.454;6.718;2023-04-08T06:03:25;174.03;;;36.23;;
20559;SDS011;10438;51.454;6.718;2023-04-08T06:05:51;137.23;;;33.20;;
20559;SDS011;10438;51.454;6.718;2023-04-08T06:08:16;139.10;;;34.00;;
20559;SDS011;10438;51.454;6.718;2023-04-08T06:10:48;161.47;;;35.03;;
20559;SDS011;10438;51.454;6.718;2023-04-08T06:13:15;228.17;;;38.00;;
20559;SDS011;10438;51.454;6.718;2023-04-08T06:15:40;176.80;;;36.10;;
20559;SDS011;10438;51.454;6.718;2023-04-08T06:18:06;109.60;;;38.77;;
20559;SDS011;10438;51.454;6.718;2023-04-08T06:20:31;123.87;;;36.83;;
20559;SDS011;10438;51.454;6.718;2023-04-08T06:22:57;151.13;;;40.03;;
20559;SDS011;10438;51.454;6.718;2023-04-08T06:25:22;194.30;;;44.07;;
20559;SDS011;10438;51.454;6.718;2023-04-08T06:27:48;176.30;;;43.53;;
20559;SDS011;10438;51.454;6.718;2023-04-08T06:30:14;239.77;;;46.73;;
20559;SDS011;10438;51.454;6.718;2023-04-08T06:32:40;187.30;;;45.23;;
20559;SDS011;10438;51.454;6.718;2023-04-08T06:35:06;188.47;;;45.53;;
20559;SDS011;10438;51.454;6.718;2023-04-08T06:37:32;220.73;;;47.93;;
20559;SDS011;10438;51.454;6.718;2023-04-08T06:39:58;126.93;;;44.47;;
20559;SDS011;10438;51.454;6.718;2023-04-08T06:42:23;198.10;;;45.73;;
20559;SDS011;10438;51.454;6.718;2023-04-08T06:44:49;134.93;;;42.77;;
20559;SDS011;10438;51.454;6.718;2023-04-08T06:47:15;171.23;;;42.00;;
20559;SDS011;10438;51.454;6.718;2023-04-08T06:49:41;215.63;;;42.87;;
20559;SDS011;10438;51.454;6.718;2023-04-08T06:52:06;163.07;;;40.60;;
20559;SDS011;10438;51.454;6.718;2023-04-08T06:54:32;101.60;;;36.73;;
20559;SDS011;10438;51.454;6.718;2023-04-08T06:56:58;132.30;;;37.27;;
20559;SDS011;10438;51.454;6.718;2023-04-08T06:59:23;96.27;;;38.90;;
20559;SDS011;10438;51.454;6.718;2023-04-08T07:01:49;119.27;;;35.93;;
20559;SDS011;10438;51.454;6.718;2023-04-08T07:04:14;104.23;;;34.47;;
20559;SDS011;10438;51.454;6.718;2023-04-08T07:06:40;76.93;;;32.90;;
20559;SDS011;10438;51.454;6.718;2023-04-08T07:09:06;98.83;;;29.63;;
20559;SDS011;10438;51.454;6.718;2023-04-08T07:11:31;53.03;;;26.27;;
20559;SDS011;10438;51.454;6.718;2023-04-08T07:13:57;66.97;;;25.47;;
20559;SDS011;10438;51.454;6.718;2023-04-08T07:16:23;69.33;;;26.10;;
20559;SDS011;10438;51.454;6.718;2023-04-08T07:18:48;51.37;;;24.63;;
20559;SDS011;10438;51.454;6.718;2023-04-08T07:21:15;68.40;;;25.10;;
20559;SDS011;10438;51.454;6.718;2023-04-08T07:23:42;45.03;;;24.37;;
20559;SDS011;10438;51.454;6.718;2023-04-08T07:26:07;49.63;;;24.20;;
20559;SDS011;10438;51.454;6.718;2023-04-08T07:28:33;75.03;;;26.67;;
20559;SDS011;10438;51.454;6.718;2023-04-08T07:31:08;41.43;;;25.83;;
20559;SDS011;10438;51.454;6.718;2023-04-08T07:33:38;53.97;;;25.30;;
20559;SDS011;10438;51.454;6.718;2023-04-08T07:36:03;56.23;;;26.07;;
20559;SDS011;10438;51.454;6.718;2023-04-08T07:38:29;65.77;;;26.37;;
20559;SDS011;10438;51.454;6.718;2023-04-08T07:40:55;50.43;;;25.63;;
20559;SDS011;10438;51.454;6.718;2023-04-08T07:43:21;72.13;;;25.10;;
20559;SDS011;10438;51.454;6.718;2023-04-08T07:45:46;71.93;;;25.93;;
20559;SDS011;10438;51.454;6.718;2023-04-08T07:48:12;38.73;;;24.87;;
20559;SDS011;10438;51.454;6.718;2023-04-08T07:50:37;57.53;;;26.17;;
20559;SDS011;10438;51.454;6.718;2023-04-08T07:53:02;57.47;;;27.07;;
20559;SDS011;10438;51.454;6.718;2023-04-08T07:55:32;60.90;;;25.50;;
20559;SDS011;10438;51.454;6.718;2023-04-08T07:57:59;44.70;;;23.97;;
20559;SDS011;10438;51.454;6.718;2023-04-08T08:00:25;62.53;;;24.50;;
20559;SDS011;10438;51.454;6.718;2023-04-08T08:02:51;54.23;;;23.23;;
20559;SDS011;10438;51.454;6.718;2023-04-08T08:05:16;37.33;;;22.43;;
20559;SDS011;10438;51.454;6.718;2023-04-08T08:07:42;42.90;;;23.10;;
20559;SDS011;10438;51.454;6.718;2023-04-08T08:10:08;49.47;;;23.33;;
20559;SDS011;10438;51.454;6.718;2023-04-08T08:12:35;31.90;;;23.73;;
20559;SDS011;10438;51.454;6.718;2023-04-08T08:15:01;33.40;;;23.23;;
20559;SDS011;10438;51.454;6.718;2023-04-08T08:17:27;39.23;;;23.67;;
20559;SDS011;10438;51.454;6.718;2023-04-08T08:19:54;34.87;;;22.90;;
20559;SDS011;10438;51.454;6.718;2023-04-08T08:22:20;37.23;;;24.53;;
20559;SDS011;10438;51.454;6.718;2023-04-08T08:24:46;39.97;;;26.57;;
20559;SDS011;10438;51.454;6.718;2023-04-08T08:27:12;43.93;;;27.77;;
20559;SDS011;10438;51.454;6.718;2023-04-08T08:29:37;42.83;;;28.13;;
20559;SDS011;10438;51.454;6.718;2023-04-08T08:32:03;47.90;;;30.73;;
20559;SDS011;10438;51.454;6.718;2023-04-08T08:34:29;49.03;;;32.40;;
20559;SDS011;10438;51.454;6.718;2023-04-08T08:36:55;50.40;;;33.67;;
20559;SDS011;10438;51.454;6.718;2023-04-08T08:39:21;48.03;;;33.60;;
20559;SDS011;10438;51.454;6.718;2023-04-08T08:41:46;52.63;;;32.63;;
20559;SDS011;10438;51.454;6.718;2023-04-08T08:44:12;49.93;;;31.37;;
20559;SDS011;10438;51.454;6.718;2023-04-08T08:46:44;49.67;;;31.57;;
20559;SDS011;10438;51.454;6.718;2023-04-08T08:49:12;50.23;;;32.30;;
20559;SDS011;10438;51.454;6.718;2023-04-08T08:51:38;51.23;;;34.67;;
20559;SDS011;10438;51.454;6.718;2023-04-08T08:54:04;47.20;;;31.87;;
20559;SDS011;10438;51.454;6.718;2023-04-08T08:56:31;58.87;;;37.30;;
20559;SDS011;10438;51.454;6.718;2023-04-08T08:58:58;68.70;;;39.13;;
20559;SDS011;10438;51.454;6.718;2023-04-08T09:01:36;67.20;;;38.07;;
20559;SDS011;10438;51.454;6.718;2023-04-08T09:04:17;66.10;;;37.63;;
20559;SDS011;10438;51.454;6.718;2023-04-08T09:06:44;55.03;;;34.60;;
20559;SDS011;10438;51.454;6.718;2023-04-08T09:09:11;52.30;;;31.43;;
20559;SDS011;10438;51.454;6.718;2023-04-08T09:11:42;43.97;;;29.40;;
20559;SDS011;10438;51.454;6.718;2023-04-08T09:14:43;43.50;;;29.30;;
20559;SDS011;10438;51.454;6.718;2023-04-08T09:17:01;46.63;;;30.07;;
20559;SDS011;10438;51.454;6.718;2023-04-08T09:19:27;58.20;;;34.37;;
20559;SDS011;10438;51.454;6.718;2023-04-08T09:24:31;59.97;;;35.23;;
20559;SDS011;10438;51.454;6.718;2023-04-08T09:26:57;63.03;;;36.37;;
20559;SDS011;10438;51.454;6.718;2023-04-08T09:29:23;55.97;;;34.63;;
20559;SDS011;10438;51.454;6.718;2023-04-08T09:31:57;43.67;;;30.60;;
20559;SDS011;10438;51.454;6.718;2023-04-08T09:34:23;42.37;;;27.63;;
20559;SDS011;10438;51.454;6.718;2023-04-08T09:36:50;45.63;;;30.47;;
20559;SDS011;10438;51.454;6.718;2023-04-08T09:39:17;44.70;;;30.13;;
20559;SDS011;10438;51.454;6.718;2023-04-08T09:41:43;45.13;;;30.00;;
20559;SDS011;10438;51.454;6.718;2023-04-08T09:44:11;42.67;;;27.83;;
20559;SDS011;10438;51.454;6.718;2023-04-08T09:49:17;34.57;;;27.20;;
20559;SDS011;10438;51.454;6.718;2023-04-08T09:52:09;38.27;;;26.60;;
20559;SDS011;10438;51.454;6.718;2023-04-08T09:54:48;42.00;;;26.90;;
20559;SDS011;10438;51.454;6.718;2023-04-08T09:57:20;38.17;;;26.83;;
20559;SDS011;10438;51.454;6.718;2023-04-08T10:00:15;33.30;;;23.57;;
20559;SDS011;10438;51.454;6.718;2023-04-08T10:05:18;33.23;;;24.30;;
20559;SDS011;10438;51.454;6.718;2023-04-08T10:07:46;29.80;;;23.13;;
20559;SDS011;10438;51.454;6.718;2023-04-08T10:10:12;28.23;;;21.90;;
20559;SDS011;10438;51.454;6.718;2023-04-08T10:12:38;30.87;;;22.33;;
20559;SDS011;10438;51.454;6.718;2023-04-08T10:17:49;25.40;;;19.23;;
20559;SDS011;10438;51.454;6.718;2023-04-08T10:20:58;26.10;;;19.87;;
20559;SDS011;10438;51.454;6.718;2023-04-08T10:23:06;24.17;;;17.97;;
20559;SDS011;10438;51.454;6.718;2023-04-08T10:25:40;27.13;;;20.07;;
20559;SDS011;10438;51.454;6.718;2023-04-08T10:30:42;21.57;;;16.00;;
20559;SDS011;10438;51.454;6.718;2023-04-08T10:33:10;23.23;;;17.83;;
20559;SDS011;10438;51.454;6.718;2023-04-08T10:35:52;22.13;;;17.80;;
20559;SDS011;10438;51.454;6.718;2023-04-08T10:38:18;22.73;;;16.97;;
20559;SDS011;10438;51.454;6.718;2023-04-08T10:40:46;25.17;;;16.73;;
20559;SDS011;10438;51.454;6.718;2023-04-08T10:43:13;21.57;;;17.07;;
20559;SDS011;10438;51.454;6.718;2023-04-08T10:45:40;20.13;;;15.50;;
20559;SDS011;10438;51.454;6.718;2023-04-08T10:48:22;26.00;;;14.13;;
20559;SDS011;10438;51.454;6.718;2023-04-08T10:50:58;19.73;;;14.97;;
20559;SDS011;10438;51.454;6.718;2023-04-08T10:53:26;20.30;;;14.67;;
20559;SDS011;10438;51.454;6.718;2023-04-08T10:55:53;19.27;;;13.50;;
20559;SDS011;10438;51.454;6.718;2023-04-08T10:58:36;16.97;;;10.30;;
20559;SDS011;10438;51.454;6.718;2023-04-08T11:01:20;15.13;;;10.03;;
20559;SDS011;10438;51.454;6.718;2023-04-08T11:03:46;15.60;;;10.50;;
20559;SDS011;10438;51.454;6.718;2023-04-08T11:06:12;16.10;;;10.50;;
20559;SDS011;10438;51.454;6.718;2023-04-08T11:08:37;20.13;;;10.63;;
20559;SDS011;10438;51.454;6.718;2023-04-08T11:11:04;15.67;;;9.83;;
20559;SDS011;10438;51.454;6.718;2023-04-08T11:13:35;14.00;;;9.57;;
20559;SDS011;10438;51.454;6.718;2023-04-08T11:16:02;14.37;;;9.67;;
20559;SDS011;10438;51.454;6.718;2023-04-08T11:18:29;14.67;;;8.83;;
20559;SDS011;10438;51.454;6.718;2023-04-08T11:20:56;12.80;;;8.23;;
20559;SDS011;10438;51.454;6.718;2023-04-08T11:23:23;11.40;;;8.50;;
20559;SDS011;10438;51.454;6.718;2023-04-08T11:25:50;10.83;;;6.97;;
20559;SDS011;10438;51.454;6.718;2023-04-08T11:28:16;12.37;;;7.53;;
20559;SDS011;10438;51.454;6.718;2023-04-08T11:30:42;11.00;;;6.63;;
20559;SDS011;10438;51.454;6.718;2023-04-08T11:33:08;10.27;;;6.80;;
20559;SDS011;10438;51.454;6.718;2023-04-08T11:35:38;10.83;;;6.70;;
20559;SDS011;10438;51.454;6.718;2023-04-08T11:38:04;9.43;;;6.90;;
20559;SDS011;10438;51.454;6.718;2023-04-08T11:40:30;10.13;;;6.37;;
20559;SDS011;10438;51.454;6.718;2023-04-08T11:42:56;8.70;;;5.90;;
20559;SDS011;10438;51.454;6.718;2023-04-08T11:45:21;9.43;;;5.53;;
20559;SDS011;10438;51.454;6.718;2023-04-08T11:47:47;8.80;;;5.57;;
20559;SDS011;10438;51.454;6.718;2023-04-08T11:50:22;9.73;;;6.00;;
20559;SDS011;10438;51.454;6.718;2023-04-08T11:52:49;10.77;;;5.70;;
20559;SDS011;10438;51.454;6.718;2023-04-08T11:55:25;11.07;;;5.93;;
20559;SDS011;10438;51.454;6.718;2023-04-08T11:57:52;10.03;;;5.87;;
20559;SDS011;10438;51.454;6.718;2023-04-08T12:00:19;7.90;;;5.60;;
20559;SDS011;10438;51.454;6.718;2023-04-08T12:02:46;9.83;;;5.83;;
20559;SDS011;10438;51.454;6.718;2023-04-08T12:05:14;10.63;;;5.93;;
20559;SDS011;10438;51.454;6.718;2023-04-08T12:07:40;10.93;;;6.00;;
20559;SDS011;10438;51.454;6.718;2023-04-08T12:10:07;13.90;;;6.13;;
20559;SDS011;10438;51.454;6.718;2023-04-08T12:12:33;10.73;;;6.53;;
20559;SDS011;10438;51.454;6.718;2023-04-08T12:14:59;12.67;;;6.07;;
20559;SDS011;10438;51.454;6.718;2023-04-08T12:17:25;10.27;;;6.67;;
20559;SDS011;10438;51.454;6.718;2023-04-08T12:19:50;11.67;;;6.27;;
20559;SDS011;10438;51.454;6.718;2023-04-08T12:22:16;11.60;;;7.00;;
20559;SDS011;10438;51.454;6.718;2023-04-08T12:24:41;11.97;;;6.37;;
20559;SDS011;10438;51.454;6.718;2023-04-08T12:27:07;10.50;;;6.73;;
20559;SDS011;10438;51.454;6.718;2023-04-08T12:29:32;11.70;;;6.77;;
20559;SDS011;10438;51.454;6.718;2023-04-08T12:31:58;9.70;;;6.23;;
20559;SDS011;10438;51.454;6.718;2023-04-08T12:34:23;11.07;;;6.43;;
20559;SDS011;10438;51.454;6.718;2023-04-08T12:36:49;8.63;;;6.00;;
20559;SDS011;10438;51.454;6.718;2023-04-08T12:39:15;13.27;;;6.37;;
20559;SDS011;10438;51.454;6.718;2023-04-08T12:41:40;11.43;;;6.53;;
20559;SDS011;10438;51.454;6.718;2023-04-08T12:44:06;11.00;;;6.13;;
20559;SDS011;10438;51.454;6.718;2023-04-08T12:46:31;14.20;;;7.07;;
20559;SDS011;10438;51.454;6.718;2023-04-08T12:48:57;11.80;;;7.00;;
20559;SDS011;10438;51.454;6.718;2023-04-08T12:51:23;11.00;;;6.20;;
20559;SDS011;10438;51.454;6.718;2023-04-08T12:53:50;10.07;;;6.70;;
20559;SDS011;10438;51.454;6.718;2023-04-08T12:56:15;14.27;;;6.30;;
20559;SDS011;10438;51.454;6.718;2023-04-08T12:58:41;11.97;;;7.07;;
20559;SDS011;10438;51.454;6.718;2023-04-08T13:01:07;9.07;;;6.60;;
20559;SDS011;10438;51.454;6.718;2023-04-08T13:03:32;8.63;;;6.00;;
20559;SDS011;10438;51.454;6.718;2023-04-08T13:05:59;12.80;;;6.90;;
20559;SDS011;10438;51.454;6.718;2023-04-08T13:08:25;14.57;;;6.10;;
20559;SDS011;10438;51.454;6.718;2023-04-08T13:10:51;11.27;;;6.60;;
20559;SDS011;10438;51.454;6.718;2023-04-08T13:13:16;12.27;;;6.93;;
20559;SDS011;10438;51.454;6.718;2023-04-08T13:15:42;9.43;;;6.87;;
20559;SDS011;10438;51.454;6.718;2023-04-08T13:18:08;11.90;;;6.93;;
20559;SDS011;10438;51.454;6.718;2023-04-08T13:20:33;10.00;;;6.63;;
20559;SDS011;10438;51.454;6.718;2023-04-08T13:22:59;14.53;;;7.53;;
20559;SDS011;10438;51.454;6.718;2023-04-08T13:25:25;12.23;;;8.40;;
20559;SDS011;10438;51.454;6.718;2023-04-08T13:27:51;12.80;;;7.47;;
20559;SDS011;10438;51.454;6.718;2023-04-08T13:30:16;11.87;;;7.50;;
20559;SDS011;10438;51.454;6.718;2023-04-08T13:32:42;9.60;;;6.57;;
20559;SDS011;10438;51.454;6.718;2023-04-08T13:35:07;8.30;;;6.27;;
20559;SDS011;10438;51.454;6.718;2023-04-08T13:37:33;13.73;;;6.77;;
20559;SDS011;10438;51.454;6.718;2023-04-08T13:39:59;9.13;;;6.23;;
20559;SDS011;10438;51.454;6.718;2023-04-08T13:42:25;8.53;;;5.73;;
20559;SDS011;10438;51.454;6.718;2023-04-08T13:44:51;9.20;;;6.20;;
20559;SDS011;10438;51.454;6.718;2023-04-08T13:47:16;11.30;;;6.10;;
20559;SDS011;10438;51.454;6.718;2023-04-08T13:49:42;8.77;;;6.07;;
20559;SDS011;10438;51.454;6.718;2023-04-08T13:52:07;8.87;;;6.27;;
20559;SDS011;10438;51.454;6.718;2023-04-08T13:54:33;10.47;;;6.17;;
20559;SDS011;10438;51.454;6.718;2023-04-08T13:56:59;11.97;;;6.17;;
20559;SDS011;10438;51.454;6.718;2023-04-08T13:59:25;10.50;;;6.93;;
20559;SDS011;10438;51.454;6.718;2023-04-08T14:01:50;9.07;;;6.10;;
20559;SDS011;10438;51.454;6.718;2023-04-08T14:04:18;10.87;;;6.13;;
20559;SDS011;10438;51.454;6.718;2023-04-08T14:06:44;10.07;;;6.90;;
20559;SDS011;10438;51.454;6.718;2023-04-08T14:09:10;10.87;;;6.67;;
20559;SDS011;10438;51.454;6.718;2023-04-08T14:11:36;10.77;;;7.13;;
20559;SDS011;10438;51.454;6.718;2023-04-08T14:14:02;9.63;;;6.43;;
20559;SDS011;10438;51.454;6.718;2023-04-08T14:16:27;12.27;;;7.13;;
20559;SDS011;10438;51.454;6.718;2023-04-08T14:18:55;11.60;;;7.40;;
20559;SDS011;10438;51.454;6.718;2023-04-08T14:21:20;10.10;;;7.10;;
20559;SDS011;10438;51.454;6.718;2023-04-08T14:23:46;11.53;;;7.10;;
20559;SDS011;10438;51.454;6.718;2023-04-08T14:26:12;10.43;;;7.27;;
20559;SDS011;10438;51.454;6.718;2023-04-08T14:28:37;9.57;;;6.83;;
20559;SDS011;10438;51.454;6.718;2023-04-08T14:31:03;12.50;;;7.20;;
20559;SDS011;10438;51.454;6.718;2023-04-08T14:33:29;9.73;;;6.70;;
20559;SDS011;10438;51.454;6.718;2023-04-08T14:35:55;12.03;;;7.77;;
20559;SDS011;10438;51.454;6.718;2023-04-08T14:38:21;9.87;;;6.90;;
20559;SDS011;10438;51.454;6.718;2023-04-08T14:40:47;14.37;;;8.20;;